createdAt,value
2017-11-09T00:00:15.915Z,1016.52
2017-11-09T00:00:56.483Z,1016.54
2017-11-09T00:01:37.063Z,1016.55
2017-11-09T00:02:17.623Z,1016.46
2017-11-09T00:02:58.185Z,1016.48
2017-11-09T00:03:38.737Z,1016.48
2017-11-09T00:04:19.303Z,1016.53
2017-11-09T00:04:59.882Z,1016.5
2017-11-09T00:05:40.453Z,1016.5
2017-11-09T00:06:21.041Z,1016.51
2017-11-09T00:07:01.623Z,1016.49
2017-11-09T00:07:42.177Z,1016.48
2017-11-09T00:08:22.752Z,1016.51
2017-11-09T00:09:03.325Z,1016.5
2017-11-09T00:09:43.925Z,1016.5
2017-11-09T00:10:24.505Z,1016.5
2017-11-09T00:11:05.116Z,1016.49
2017-11-09T00:11:45.682Z,1016.51
2017-11-09T00:12:26.265Z,1016.48
2017-11-09T00:13:06.838Z,1016.5
2017-11-09T00:13:47.410Z,1016.42
2017-11-09T00:14:27.978Z,1016.47
2017-11-09T00:15:08.556Z,1016.44
2017-11-09T00:15:49.129Z,1016.45
2017-11-09T00:16:29.684Z,1016.47
2017-11-09T00:17:10.278Z,1016.46
2017-11-09T00:17:50.842Z,1016.44
2017-11-09T00:18:31.399Z,1016.4
2017-11-09T00:19:11.958Z,1016.41
2017-11-09T00:19:52.536Z,1016.4
2017-11-09T00:20:33.118Z,1016.41
2017-11-09T00:21:13.690Z,1016.34
2017-11-09T00:21:54.251Z,1016.35
2017-11-09T00:22:34.857Z,1016.36
2017-11-09T00:23:15.466Z,1016.34
2017-11-09T00:23:56.037Z,1016.36
2017-11-09T00:24:36.598Z,1016.32
2017-11-09T00:25:17.153Z,1016.3
2017-11-09T00:25:57.714Z,1016.33
2017-11-09T00:26:38.313Z,1016.33
2017-11-09T00:27:18.881Z,1016.35
2017-11-09T00:27:59.451Z,1016.33
2017-11-09T00:28:40.019Z,1016.33
2017-11-09T00:29:20.595Z,1016.34
2017-11-09T00:30:01.167Z,1016.35
2017-11-09T00:30:41.749Z,1016.34
2017-11-09T00:31:22.318Z,1016.34
2017-11-09T00:32:02.883Z,1016.38
2017-11-09T00:32:43.462Z,1016.35
2017-11-09T00:33:24.024Z,1016.38
2017-11-09T00:34:04.612Z,1016.37
2017-11-09T00:34:45.173Z,1016.4
2017-11-09T00:35:25.771Z,1016.4
2017-11-09T00:36:06.339Z,1016.39
2017-11-09T00:36:47.243Z,1016.39
2017-11-09T00:37:27.815Z,1016.36
2017-11-09T00:38:08.387Z,1016.33
2017-11-09T00:38:48.958Z,1016.35
2017-11-09T00:39:29.519Z,1016.38
2017-11-09T00:40:10.086Z,1016.33
2017-11-09T00:40:50.677Z,1016.34
2017-11-09T00:41:31.218Z,1016.31
2017-11-09T00:42:11.787Z,1016.33
2017-11-09T00:42:52.337Z,1016.33
2017-11-09T00:43:32.903Z,1016.34
2017-11-09T00:44:13.460Z,1016.39
2017-11-09T00:44:54.039Z,1016.39
2017-11-09T00:45:34.593Z,1016.39
2017-11-09T00:46:15.164Z,1016.38
2017-11-09T00:46:55.719Z,1016.4
2017-11-09T00:47:36.281Z,1016.41
2017-11-09T00:48:16.850Z,1016.42
2017-11-09T00:48:57.407Z,1016.4
2017-11-09T00:49:37.995Z,1016.35
2017-11-09T00:50:18.657Z,1016.4
2017-11-09T00:50:59.188Z,1016.4
2017-11-09T00:51:39.750Z,1016.41
2017-11-09T00:52:20.324Z,1016.37
2017-11-09T00:53:00.896Z,1016.37
2017-11-09T00:53:41.461Z,1016.34
2017-11-09T00:54:22.026Z,1016.34
2017-11-09T00:55:02.587Z,1016.34
2017-11-09T00:55:43.149Z,1016.32
2017-11-09T00:56:23.733Z,1016.36
2017-11-09T00:57:04.317Z,1016.3
2017-11-09T00:57:44.865Z,1016.35
2017-11-09T00:58:25.456Z,1016.32
2017-11-09T00:59:06.021Z,1016.31
2017-11-09T00:59:46.619Z,1016.31
2017-11-09T01:00:27.184Z,1016.29
2017-11-09T01:01:07.739Z,1016.29
2017-11-09T01:01:48.325Z,1016.26
2017-11-09T01:02:28.875Z,1016.27
2017-11-09T01:03:09.442Z,1016.26
2017-11-09T01:03:50.019Z,1016.24
2017-11-09T01:04:30.573Z,1016.23
2017-11-09T01:05:11.148Z,1016.23
2017-11-09T01:05:51.730Z,1016.23
2017-11-09T01:06:32.292Z,1016.24
2017-11-09T01:07:12.870Z,1016.21
2017-11-09T01:07:53.448Z,1016.22
2017-11-09T01:08:34.010Z,1016.18
2017-11-09T01:09:14.577Z,1016.19
2017-11-09T01:09:55.141Z,1016.19
2017-11-09T01:10:35.718Z,1016.13
2017-11-09T01:11:16.286Z,1016.21
2017-11-09T01:11:56.861Z,1016.19
2017-11-09T01:12:37.468Z,1016.2
2017-11-09T01:13:18.025Z,1016.18
2017-11-09T01:13:58.609Z,1016.18
2017-11-09T01:14:39.183Z,1016.18
2017-11-09T01:15:19.777Z,1016.19
2017-11-09T01:16:00.343Z,1016.21
2017-11-09T01:16:40.946Z,1016.21
2017-11-09T01:17:21.538Z,1016.15
2017-11-09T01:18:02.098Z,1016.19
2017-11-09T01:18:42.653Z,1016.17
2017-11-09T01:19:23.196Z,1016.15
2017-11-09T01:20:03.760Z,1016.19
2017-11-09T01:20:44.331Z,1016.13
2017-11-09T01:21:24.913Z,1016.16
2017-11-09T01:22:05.498Z,1016.17
2017-11-09T01:22:46.064Z,1016.12
2017-11-09T01:23:26.656Z,1016.2
2017-11-09T01:24:07.220Z,1016.17
2017-11-09T01:24:47.802Z,1016.14
2017-11-09T01:25:28.380Z,1016.16
2017-11-09T01:26:08.956Z,1016.14
2017-11-09T01:26:49.520Z,1016.16
2017-11-09T01:27:30.076Z,1016.16
2017-11-09T01:28:10.660Z,1016.13
2017-11-09T01:28:51.245Z,1016.16
2017-11-09T01:29:31.829Z,1016.16
2017-11-09T01:30:12.408Z,1016.19
2017-11-09T01:30:53.002Z,1016.18
2017-11-09T01:31:33.593Z,1016.14
2017-11-09T01:32:14.166Z,1016.17
2017-11-09T01:32:54.753Z,1016.15
2017-11-09T01:33:35.346Z,1016.16
2017-11-09T01:34:15.925Z,1016.14
2017-11-09T01:34:57.202Z,1016.17
2017-11-09T01:35:37.780Z,1016.16
2017-11-09T01:36:18.357Z,1016.11
2017-11-09T01:36:58.913Z,1016.1
2017-11-09T01:37:39.501Z,1016.06
2017-11-09T01:38:20.055Z,1016.08
2017-11-09T01:39:00.640Z,1016.1
2017-11-09T01:39:41.205Z,1016.08
2017-11-09T01:40:21.792Z,1016.06
2017-11-09T01:41:02.356Z,1016.08
2017-11-09T01:41:42.936Z,1016.09
2017-11-09T01:42:23.517Z,1016.05
2017-11-09T01:43:04.100Z,1016.06
2017-11-09T01:43:44.655Z,1016.08
2017-11-09T01:44:25.214Z,1016.09
2017-11-09T01:45:05.795Z,1016.06
2017-11-09T01:45:46.418Z,1016.08
2017-11-09T01:46:27.006Z,1016.05
2017-11-09T01:47:07.570Z,1016.06
2017-11-09T01:47:48.162Z,1016.07
2017-11-09T01:48:28.742Z,1016.1
2017-11-09T01:49:09.311Z,1016.07
2017-11-09T01:49:49.910Z,1016.14
2017-11-09T01:50:30.474Z,1016.12
2017-11-09T01:51:11.065Z,1016.13
2017-11-09T01:51:51.625Z,1016.09
2017-11-09T01:52:32.209Z,1016.13
2017-11-09T01:53:12.775Z,1016.11
2017-11-09T01:53:53.330Z,1016.13
2017-11-09T01:54:33.924Z,1016.1
2017-11-09T01:55:14.518Z,1016.12
2017-11-09T01:55:55.095Z,1016.14
2017-11-09T01:56:35.653Z,1016.1
2017-11-09T01:57:16.216Z,1016.08
2017-11-09T01:57:56.826Z,1016.09
2017-11-09T01:58:37.471Z,1016.08
2017-11-09T01:59:18.024Z,1016.09
2017-11-09T01:59:58.600Z,1016.1
2017-11-09T02:00:39.158Z,1016.12
2017-11-09T02:01:19.716Z,1016.1
2017-11-09T02:02:00.290Z,1016.11
2017-11-09T02:02:40.859Z,1016.12
2017-11-09T02:03:21.446Z,1016.1
2017-11-09T02:04:02.052Z,1016.15
2017-11-09T02:04:42.598Z,1016.1
2017-11-09T02:05:23.179Z,1016.14
2017-11-09T02:06:03.786Z,1016.15
2017-11-09T02:06:44.382Z,1016.11
2017-11-09T02:07:24.952Z,1016.09
2017-11-09T02:08:05.525Z,1016.08
2017-11-09T02:08:46.086Z,1016.06
2017-11-09T02:09:26.655Z,1016.07
2017-11-09T02:10:07.251Z,1016.07
2017-11-09T02:10:47.847Z,1016.07
2017-11-09T02:11:28.407Z,1016.02
2017-11-09T02:12:09.027Z,1016.1
2017-11-09T02:12:49.602Z,1016.06
2017-11-09T02:13:30.164Z,1016.08
2017-11-09T02:14:10.772Z,1016.12
2017-11-09T02:14:51.352Z,1016.08
2017-11-09T02:15:31.914Z,1016.08
2017-11-09T02:16:12.473Z,1016.14
2017-11-09T02:16:53.100Z,1016.11
2017-11-09T02:17:33.673Z,1016.12
2017-11-09T02:18:14.237Z,1016.11
2017-11-09T02:18:54.805Z,1016.15
2017-11-09T02:19:35.415Z,1016.15
2017-11-09T02:20:16.016Z,1016.18
2017-11-09T02:20:56.619Z,1016.16
2017-11-09T02:21:37.184Z,1016.14
2017-11-09T02:22:17.757Z,1016.15
2017-11-09T02:22:58.326Z,1016.14
2017-11-09T02:23:38.884Z,1016.14
2017-11-09T02:24:19.461Z,1016.21
2017-11-09T02:25:00.055Z,1016.14
2017-11-09T02:25:40.649Z,1016.15
2017-11-09T02:26:21.226Z,1016.21
2017-11-09T02:27:01.777Z,1016.21
2017-11-09T02:27:42.378Z,1016.19
2017-11-09T02:28:22.953Z,1016.19
2017-11-09T02:29:03.519Z,1016.2
2017-11-09T02:29:44.099Z,1016.2
2017-11-09T02:30:24.670Z,1016.19
2017-11-09T02:31:05.276Z,1016.16
2017-11-09T02:31:45.841Z,1016.19
2017-11-09T02:32:26.429Z,1016.18
2017-11-09T02:33:07.002Z,1016.17
2017-11-09T02:33:47.580Z,1016.18
2017-11-09T02:34:28.176Z,1016.19
2017-11-09T02:35:08.752Z,1016.16
2017-11-09T02:35:49.347Z,1016.2
2017-11-09T02:36:29.898Z,1016.2
2017-11-09T02:37:10.492Z,1016.17
2017-11-09T02:37:51.085Z,1016.2
2017-11-09T02:38:31.656Z,1016.2
2017-11-09T02:39:12.234Z,1016.22
2017-11-09T02:39:52.805Z,1016.22
2017-11-09T02:40:33.389Z,1016.21
2017-11-09T02:41:13.968Z,1016.25
2017-11-09T02:41:54.528Z,1016.24
2017-11-09T02:42:35.107Z,1016.27
2017-11-09T02:43:15.687Z,1016.27
2017-11-09T02:43:56.289Z,1016.27
2017-11-09T02:44:36.857Z,1016.26
2017-11-09T02:45:17.440Z,1016.29
2017-11-09T02:45:58.011Z,1016.3
2017-11-09T02:46:38.591Z,1016.28
2017-11-09T02:47:19.162Z,1016.24
2017-11-09T02:47:59.824Z,1016.28
2017-11-09T02:48:40.407Z,1016.29
2017-11-09T02:49:21.017Z,1016.22
2017-11-09T02:50:01.604Z,1016.24
2017-11-09T02:50:42.169Z,1016.24
2017-11-09T02:51:22.742Z,1016.22
2017-11-09T02:52:03.312Z,1016.21
2017-11-09T02:52:43.892Z,1016.22
2017-11-09T02:53:24.474Z,1016.24
2017-11-09T02:54:05.046Z,1016.22
2017-11-09T02:54:45.657Z,1016.16
2017-11-09T02:55:26.214Z,1016.19
2017-11-09T02:56:06.784Z,1016.17
2017-11-09T02:56:47.346Z,1016.2
2017-11-09T02:57:27.911Z,1016.2
2017-11-09T02:58:08.492Z,1016.2
2017-11-09T02:58:49.083Z,1016.19
2017-11-09T02:59:29.647Z,1016.18
2017-11-09T03:00:10.219Z,1016.18
2017-11-09T03:00:50.780Z,1016.18
2017-11-09T03:01:31.349Z,1016.15
2017-11-09T03:02:11.977Z,1016.18
2017-11-09T03:02:52.558Z,1016.16
2017-11-09T03:03:33.127Z,1016.25
2017-11-09T03:04:13.699Z,1016.16
2017-11-09T03:04:54.278Z,1016.2
2017-11-09T03:05:34.890Z,1016.16
2017-11-09T03:06:15.476Z,1016.17
2017-11-09T03:06:56.044Z,1016.14
2017-11-09T03:07:36.632Z,1016.18
2017-11-09T03:08:17.206Z,1016.19
2017-11-09T03:08:57.779Z,1016.18
2017-11-09T03:09:38.341Z,1016.19
2017-11-09T03:10:18.930Z,1016.18
2017-11-09T03:10:59.497Z,1016.17
2017-11-09T03:11:40.060Z,1016.15
2017-11-09T03:12:20.620Z,1016.18
2017-11-09T03:13:01.196Z,1016.21
2017-11-09T03:13:41.755Z,1016.24
2017-11-09T03:14:22.334Z,1016.22
2017-11-09T03:15:02.898Z,1016.2
2017-11-09T03:15:43.480Z,1016.22
2017-11-09T03:16:24.042Z,1016.24
2017-11-09T03:17:04.603Z,1016.28
2017-11-09T03:17:45.203Z,1016.21
2017-11-09T03:18:25.780Z,1016.21
2017-11-09T03:19:06.355Z,1016.25
2017-11-09T03:19:46.906Z,1016.26
2017-11-09T03:20:27.492Z,1016.26
2017-11-09T03:21:08.050Z,1016.26
2017-11-09T03:21:48.635Z,1016.3
2017-11-09T03:22:29.220Z,1016.29
2017-11-09T03:23:09.765Z,1016.32
2017-11-09T03:23:50.350Z,1016.29
2017-11-09T03:24:31.005Z,1016.28
2017-11-09T03:25:11.567Z,1016.32
2017-11-09T03:25:52.147Z,1016.29
2017-11-09T03:26:32.721Z,1016.31
2017-11-09T03:27:13.264Z,1016.28
2017-11-09T03:27:53.825Z,1016.29
2017-11-09T03:28:34.391Z,1016.24
2017-11-09T03:29:14.959Z,1016.26
2017-11-09T03:29:55.512Z,1016.26
2017-11-09T03:30:36.329Z,1016.26
2017-11-09T03:31:16.887Z,1016.24
2017-11-09T03:31:57.443Z,1016.25
2017-11-09T03:32:38.031Z,1016.24
2017-11-09T03:33:18.594Z,1016.23
2017-11-09T03:33:59.190Z,1016.26
2017-11-09T03:34:39.760Z,1016.27
2017-11-09T03:35:20.357Z,1016.24
2017-11-09T03:36:00.921Z,1016.25
2017-11-09T03:36:41.510Z,1016.25
2017-11-09T03:37:22.046Z,1016.24
2017-11-09T03:38:02.605Z,1016.23
2017-11-09T03:38:43.184Z,1016.24
2017-11-09T03:39:23.760Z,1016.23
2017-11-09T03:40:04.314Z,1016.24
2017-11-09T03:40:44.888Z,1016.19
2017-11-09T03:41:25.447Z,1016.2
2017-11-09T03:42:06.001Z,1016.21
2017-11-09T03:42:46.642Z,1016.24
2017-11-09T03:43:27.194Z,1016.19
2017-11-09T03:44:07.760Z,1016.16
2017-11-09T03:44:48.323Z,1016.19
2017-11-09T03:45:28.905Z,1016.2
2017-11-09T03:46:09.466Z,1016.2
2017-11-09T03:46:50.031Z,1016.22
2017-11-09T03:47:30.613Z,1016.23
2017-11-09T03:48:11.181Z,1016.25
2017-11-09T03:48:51.774Z,1016.23
2017-11-09T03:49:32.351Z,1016.22
2017-11-09T03:50:12.900Z,1016.25
2017-11-09T03:50:53.466Z,1016.23
2017-11-09T03:51:34.041Z,1016.22
2017-11-09T03:52:14.646Z,1016.2
2017-11-09T03:52:55.203Z,1016.17
2017-11-09T03:53:35.782Z,1016.17
2017-11-09T03:54:16.359Z,1016.16
2017-11-09T03:54:56.916Z,1016.14
2017-11-09T03:55:37.486Z,1016.17
2017-11-09T03:56:18.054Z,1016.14
2017-11-09T03:56:58.617Z,1016.15
2017-11-09T03:57:39.191Z,1016.17
2017-11-09T03:58:19.744Z,1016.18
2017-11-09T03:59:00.298Z,1016.16
2017-11-09T03:59:40.881Z,1016.16
2017-11-09T04:00:21.453Z,1016.16
2017-11-09T04:01:02.023Z,1016.17
2017-11-09T04:01:42.589Z,1016.2
2017-11-09T04:02:23.149Z,1016.17
2017-11-09T04:03:03.712Z,1016.23
2017-11-09T04:03:44.278Z,1016.19
2017-11-09T04:04:24.840Z,1016.17
2017-11-09T04:05:05.406Z,1016.22
2017-11-09T04:05:45.974Z,1016.23
2017-11-09T04:06:26.547Z,1016.2
2017-11-09T04:07:07.133Z,1016.21
2017-11-09T04:07:47.730Z,1016.21
2017-11-09T04:08:28.290Z,1016.19
2017-11-09T04:09:08.850Z,1016.17
2017-11-09T04:09:49.408Z,1016.17
2017-11-09T04:10:29.982Z,1016.17
2017-11-09T04:11:10.555Z,1016.17
2017-11-09T04:11:51.119Z,1016.2
2017-11-09T04:12:31.679Z,1016.12
2017-11-09T04:13:12.253Z,1016.18
2017-11-09T04:13:52.827Z,1016.16
2017-11-09T04:14:33.439Z,1016.14
2017-11-09T04:15:14.025Z,1016.19
2017-11-09T04:15:54.614Z,1016.17
2017-11-09T04:16:35.177Z,1016.15
2017-11-09T04:17:15.753Z,1016.18
2017-11-09T04:17:56.332Z,1016.17
2017-11-09T04:18:36.896Z,1016.15
2017-11-09T04:19:17.468Z,1016.14
2017-11-09T04:19:58.027Z,1016.15
2017-11-09T04:20:38.601Z,1016.15
2017-11-09T04:21:19.157Z,1016.16
2017-11-09T04:21:59.745Z,1016.16
2017-11-09T04:22:40.348Z,1016.14
2017-11-09T04:23:20.902Z,1016.16
2017-11-09T04:24:01.467Z,1016.12
2017-11-09T04:24:42.039Z,1016.18
2017-11-09T04:25:22.599Z,1016.17
2017-11-09T04:26:03.160Z,1016.19
2017-11-09T04:26:43.719Z,1016.15
2017-11-09T04:27:24.270Z,1016.16
2017-11-09T04:28:04.860Z,1016.12
2017-11-09T04:28:45.434Z,1016.14
2017-11-09T04:29:25.989Z,1016.13
2017-11-09T04:30:06.547Z,1016.16
2017-11-09T04:30:47.113Z,1016.16
2017-11-09T04:31:27.673Z,1016.18
2017-11-09T04:32:08.226Z,1016.18
2017-11-09T04:32:48.797Z,1016.17
2017-11-09T04:33:29.359Z,1016.2
2017-11-09T04:34:09.952Z,1016.16
2017-11-09T04:34:50.537Z,1016.16
2017-11-09T04:35:31.102Z,1016.19
2017-11-09T04:36:11.670Z,1016.21
2017-11-09T04:36:52.239Z,1016.2
2017-11-09T04:37:32.817Z,1016.24
2017-11-09T04:38:13.390Z,1016.23
2017-11-09T04:38:53.962Z,1016.22
2017-11-09T04:39:34.523Z,1016.25
2017-11-09T04:40:15.106Z,1016.26
2017-11-09T04:40:55.701Z,1016.26
2017-11-09T04:41:36.290Z,1016.28
2017-11-09T04:42:16.857Z,1016.27
2017-11-09T04:42:57.416Z,1016.3
2017-11-09T04:43:38.005Z,1016.28
2017-11-09T04:44:18.581Z,1016.28
2017-11-09T04:44:59.160Z,1016.27
2017-11-09T04:45:39.755Z,1016.32
2017-11-09T04:46:20.335Z,1016.3
2017-11-09T04:47:00.888Z,1016.31
2017-11-09T04:47:41.461Z,1016.31
2017-11-09T04:48:22.035Z,1016.28
2017-11-09T04:49:02.630Z,1016.31
2017-11-09T04:49:43.198Z,1016.31
2017-11-09T04:50:23.763Z,1016.3
2017-11-09T04:51:04.335Z,1016.3
2017-11-09T04:51:44.937Z,1016.34
2017-11-09T04:52:25.560Z,1016.34
2017-11-09T04:53:06.131Z,1016.34
2017-11-09T04:53:46.699Z,1016.38
2017-11-09T04:54:27.257Z,1016.35
2017-11-09T04:55:07.824Z,1016.36
2017-11-09T04:55:48.382Z,1016.37
2017-11-09T04:56:28.963Z,1016.37
2017-11-09T04:57:09.528Z,1016.38
2017-11-09T04:57:50.105Z,1016.38
2017-11-09T04:58:30.687Z,1016.4
2017-11-09T04:59:11.235Z,1016.44
2017-11-09T04:59:51.817Z,1016.44
2017-11-09T05:00:32.379Z,1016.42
2017-11-09T05:01:12.972Z,1016.43
2017-11-09T05:01:53.544Z,1016.4
2017-11-09T05:02:34.112Z,1016.41
2017-11-09T05:03:14.682Z,1016.4
2017-11-09T05:03:55.268Z,1016.43
2017-11-09T05:04:35.852Z,1016.39
2017-11-09T05:05:16.417Z,1016.41
2017-11-09T05:05:56.974Z,1016.41
2017-11-09T05:06:37.554Z,1016.41
2017-11-09T05:07:18.131Z,1016.41
2017-11-09T05:07:58.692Z,1016.41
2017-11-09T05:08:39.252Z,1016.42
2017-11-09T05:09:19.806Z,1016.43
2017-11-09T05:10:00.368Z,1016.46
2017-11-09T05:10:40.945Z,1016.45
2017-11-09T05:11:21.500Z,1016.43
2017-11-09T05:12:02.084Z,1016.42
2017-11-09T05:12:42.857Z,1016.47
2017-11-09T05:13:23.763Z,1016.52
2017-11-09T05:14:04.349Z,1016.48
2017-11-09T05:14:44.918Z,1016.55
2017-11-09T05:15:25.672Z,1016.55
2017-11-09T05:16:06.269Z,1016.54
2017-11-09T05:16:47.090Z,1016.54
2017-11-09T05:17:27.674Z,1016.56
2017-11-09T05:18:08.408Z,1016.58
2017-11-09T05:18:48.900Z,1016.56
2017-11-09T05:19:29.457Z,1016.57
2017-11-09T05:20:10.062Z,1016.57
2017-11-09T05:20:50.632Z,1016.56
2017-11-09T05:21:31.202Z,1016.56
2017-11-09T05:22:11.778Z,1016.58
2017-11-09T05:22:52.349Z,1016.59
2017-11-09T05:23:32.899Z,1016.59
2017-11-09T05:24:13.481Z,1016.59
2017-11-09T05:24:54.050Z,1016.62
2017-11-09T05:25:34.603Z,1016.62
2017-11-09T05:26:15.179Z,1016.6
2017-11-09T05:26:55.764Z,1016.55
2017-11-09T05:27:36.341Z,1016.58
2017-11-09T05:28:16.912Z,1016.59
2017-11-09T05:28:57.476Z,1016.59
2017-11-09T05:29:38.033Z,1016.58
2017-11-09T05:30:18.599Z,1016.59
2017-11-09T05:30:59.164Z,1016.61
2017-11-09T05:31:39.725Z,1016.55
2017-11-09T05:32:20.297Z,1016.59
2017-11-09T05:33:00.863Z,1016.58
2017-11-09T05:33:41.435Z,1016.58
2017-11-09T05:34:22.011Z,1016.57
2017-11-09T05:35:02.589Z,1016.54
2017-11-09T05:35:43.173Z,1016.58
2017-11-09T05:36:23.777Z,1016.55
2017-11-09T05:37:04.356Z,1016.54
2017-11-09T05:37:44.933Z,1016.56
2017-11-09T05:38:25.504Z,1016.54
2017-11-09T05:39:06.070Z,1016.56
2017-11-09T05:39:46.645Z,1016.56
2017-11-09T05:40:27.208Z,1016.58
2017-11-09T05:41:07.777Z,1016.58
2017-11-09T05:41:48.376Z,1016.54
2017-11-09T05:42:28.926Z,1016.55
2017-11-09T05:43:09.496Z,1016.56
2017-11-09T05:43:50.404Z,1016.55
2017-11-09T05:44:31.653Z,1016.55
2017-11-09T05:45:12.231Z,1016.57
2017-11-09T05:45:52.818Z,1016.58
2017-11-09T05:46:33.386Z,1016.53
2017-11-09T05:47:13.971Z,1016.57
2017-11-09T05:47:54.527Z,1016.58
2017-11-09T05:48:35.105Z,1016.62
2017-11-09T05:49:15.662Z,1016.55
2017-11-09T05:49:56.243Z,1016.59
2017-11-09T05:50:36.869Z,1016.58
2017-11-09T05:51:17.439Z,1016.6
2017-11-09T05:51:58.024Z,1016.55
2017-11-09T05:52:38.627Z,1016.56
2017-11-09T05:53:19.160Z,1016.52
2017-11-09T05:53:59.729Z,1016.56
2017-11-09T05:54:40.282Z,1016.52
2017-11-09T05:55:20.854Z,1016.51
2017-11-09T05:56:01.426Z,1016.58
2017-11-09T05:56:41.982Z,1016.53
2017-11-09T05:57:22.550Z,1016.52
2017-11-09T05:58:03.166Z,1016.51
2017-11-09T05:58:43.727Z,1016.52
2017-11-09T05:59:24.331Z,1016.52
2017-11-09T06:00:04.903Z,1016.53
2017-11-09T06:00:45.484Z,1016.54
2017-11-09T06:01:26.098Z,1016.54
2017-11-09T06:02:06.679Z,1016.5
2017-11-09T06:02:47.242Z,1016.52
2017-11-09T06:03:27.826Z,1016.52
2017-11-09T06:04:08.392Z,1016.55
2017-11-09T06:04:48.950Z,1016.54
2017-11-09T06:05:29.514Z,1016.58
2017-11-09T06:06:10.066Z,1016.58
2017-11-09T06:06:50.655Z,1016.51
2017-11-09T06:07:31.207Z,1016.58
2017-11-09T06:08:11.796Z,1016.55
2017-11-09T06:08:52.369Z,1016.53
2017-11-09T06:09:32.941Z,1016.51
2017-11-09T06:10:13.508Z,1016.52
2017-11-09T06:10:54.089Z,1016.54
2017-11-09T06:11:34.674Z,1016.55
2017-11-09T06:12:15.248Z,1016.53
2017-11-09T06:12:55.829Z,1016.53
2017-11-09T06:13:36.437Z,1016.54
2017-11-09T06:14:17.003Z,1016.55
2017-11-09T06:14:57.605Z,1016.55
2017-11-09T06:15:38.165Z,1016.6
2017-11-09T06:16:18.723Z,1016.57
2017-11-09T06:16:59.295Z,1016.59
2017-11-09T06:17:39.878Z,1016.62
2017-11-09T06:18:20.447Z,1016.59
2017-11-09T06:19:01.015Z,1016.64
2017-11-09T06:19:41.605Z,1016.63
2017-11-09T06:20:22.179Z,1016.66
2017-11-09T06:21:02.756Z,1016.64
2017-11-09T06:21:43.315Z,1016.66
2017-11-09T06:22:23.882Z,1016.65
2017-11-09T06:23:04.459Z,1016.63
2017-11-09T06:23:45.032Z,1016.68
2017-11-09T06:24:25.605Z,1016.67
2017-11-09T06:25:06.185Z,1016.68
2017-11-09T06:25:46.756Z,1016.63
2017-11-09T06:26:27.320Z,1016.63
2017-11-09T06:27:07.895Z,1016.6
2017-11-09T06:27:48.477Z,1016.63
2017-11-09T06:28:29.044Z,1016.65
2017-11-09T06:29:09.603Z,1016.66
2017-11-09T06:29:50.168Z,1016.72
2017-11-09T06:30:30.731Z,1016.69
2017-11-09T06:31:11.308Z,1016.67
2017-11-09T06:31:51.872Z,1016.66
2017-11-09T06:32:32.430Z,1016.69
2017-11-09T06:33:12.992Z,1016.65
2017-11-09T06:33:53.591Z,1016.69
2017-11-09T06:34:34.140Z,1016.65
2017-11-09T06:35:14.704Z,1016.71
2017-11-09T06:35:55.265Z,1016.67
2017-11-09T06:36:35.852Z,1016.69
2017-11-09T06:37:16.429Z,1016.69
2017-11-09T06:37:57.031Z,1016.69
2017-11-09T06:38:37.627Z,1016.71
2017-11-09T06:39:18.205Z,1016.65
2017-11-09T06:39:58.782Z,1016.67
2017-11-09T06:40:39.363Z,1016.67
2017-11-09T06:41:19.933Z,1016.68
2017-11-09T06:42:00.509Z,1016.68
2017-11-09T06:42:41.083Z,1016.69
2017-11-09T06:43:21.685Z,1016.68
2017-11-09T06:44:02.255Z,1016.67
2017-11-09T06:44:42.814Z,1016.69
2017-11-09T06:45:23.400Z,1016.66
2017-11-09T06:46:03.975Z,1016.73
2017-11-09T06:46:44.551Z,1016.74
2017-11-09T06:47:25.177Z,1016.73
2017-11-09T06:48:05.733Z,1016.72
2017-11-09T06:48:46.286Z,1016.75
2017-11-09T06:49:26.864Z,1016.76
2017-11-09T06:50:07.459Z,1016.77
2017-11-09T06:50:48.073Z,1016.85
2017-11-09T06:51:28.658Z,1016.8
2017-11-09T06:52:09.259Z,1016.83
2017-11-09T06:52:49.811Z,1016.79
2017-11-09T06:53:30.399Z,1016.87
2017-11-09T06:54:11.780Z,1016.81
2017-11-09T06:54:52.383Z,1016.8
2017-11-09T06:55:32.949Z,1016.83
2017-11-09T06:56:13.637Z,1016.84
2017-11-09T06:56:54.229Z,1016.84
2017-11-09T06:57:34.809Z,1016.87
2017-11-09T06:58:15.404Z,1016.89
2017-11-09T06:58:56.437Z,1016.88
2017-11-09T06:59:37.021Z,1016.89
2017-11-09T07:00:17.673Z,1016.89
2017-11-09T07:00:58.409Z,1016.9
2017-11-09T07:01:39.193Z,1016.89
2017-11-09T07:02:20.019Z,1016.86
2017-11-09T07:03:01.218Z,1016.88
2017-11-09T07:03:41.979Z,1016.84
2017-11-09T07:04:22.663Z,1016.89
2017-11-09T07:05:03.759Z,1016.9
2017-11-09T07:05:44.706Z,1016.88
2017-11-09T07:06:25.278Z,1016.92
2017-11-09T07:07:05.876Z,1016.92
2017-11-09T07:07:46.632Z,1016.92
2017-11-09T07:08:27.668Z,1016.94
2017-11-09T07:09:08.309Z,1016.95
2017-11-09T07:09:48.862Z,1016.95
2017-11-09T07:10:29.517Z,1016.9
2017-11-09T07:11:10.096Z,1016.91
2017-11-09T07:11:50.670Z,1016.9
2017-11-09T07:12:31.262Z,1016.9
2017-11-09T07:13:11.856Z,1016.94
2017-11-09T07:13:52.417Z,1016.92
2017-11-09T07:14:33.012Z,1016.91
2017-11-09T07:15:13.573Z,1016.92
2017-11-09T07:15:54.168Z,1016.91
2017-11-09T07:16:34.782Z,1016.95
2017-11-09T07:17:15.373Z,1016.94
2017-11-09T07:17:55.954Z,1016.9
2017-11-09T07:18:36.536Z,1016.92
2017-11-09T07:19:17.108Z,1016.93
2017-11-09T07:19:57.699Z,1016.91
2017-11-09T07:20:38.284Z,1016.89
2017-11-09T07:21:18.873Z,1016.91
2017-11-09T07:21:59.460Z,1016.9
2017-11-09T07:22:40.047Z,1016.91
2017-11-09T07:23:20.598Z,1016.89
2017-11-09T07:24:01.175Z,1016.9
2017-11-09T07:24:41.768Z,1016.92
2017-11-09T07:25:22.340Z,1016.88
2017-11-09T07:26:02.947Z,1016.92
2017-11-09T07:26:43.537Z,1016.94
2017-11-09T07:27:24.105Z,1016.96
2017-11-09T07:28:04.695Z,1016.94
2017-11-09T07:28:45.271Z,1016.97
2017-11-09T07:29:25.865Z,1016.97
2017-11-09T07:30:06.458Z,1016.96
2017-11-09T07:30:47.087Z,1016.93
2017-11-09T07:31:27.661Z,1016.95
2017-11-09T07:32:08.254Z,1016.94
2017-11-09T07:32:48.830Z,1016.94
2017-11-09T07:33:29.396Z,1016.97
2017-11-09T07:34:09.958Z,1016.94
2017-11-09T07:34:50.538Z,1016.9
2017-11-09T07:35:31.113Z,1016.86
2017-11-09T07:36:11.693Z,1016.87
2017-11-09T07:36:52.254Z,1016.92
2017-11-09T07:37:32.813Z,1016.89
2017-11-09T07:38:13.392Z,1016.9
2017-11-09T07:38:53.997Z,1016.87
2017-11-09T07:39:34.560Z,1016.86
2017-11-09T07:40:15.130Z,1016.89
2017-11-09T07:40:55.706Z,1016.8
2017-11-09T07:41:36.271Z,1016.8
2017-11-09T07:42:16.894Z,1016.83
2017-11-09T07:42:57.481Z,1016.82
2017-11-09T07:43:38.044Z,1016.79
2017-11-09T07:44:18.633Z,1016.8
2017-11-09T07:44:59.206Z,1016.75
2017-11-09T07:45:39.768Z,1016.75
2017-11-09T07:46:20.355Z,1016.8
2017-11-09T07:47:00.918Z,1016.82
2017-11-09T07:47:41.532Z,1016.82
2017-11-09T07:48:22.288Z,1016.77
2017-11-09T07:49:02.905Z,1016.78
2017-11-09T07:49:43.462Z,1016.82
2017-11-09T07:50:24.139Z,1016.81
2017-11-09T07:51:04.708Z,1016.8
2017-11-09T07:51:45.279Z,1016.77
2017-11-09T07:52:25.862Z,1016.77
2017-11-09T07:53:06.424Z,1016.84
2017-11-09T07:53:46.994Z,1016.8
2017-11-09T07:54:27.569Z,1016.85
2017-11-09T07:55:08.141Z,1016.78
2017-11-09T07:55:48.716Z,1016.78
2017-11-09T07:56:29.272Z,1016.84
2017-11-09T07:57:09.865Z,1016.81
2017-11-09T07:57:50.434Z,1016.83
2017-11-09T07:58:31.152Z,1016.81
2017-11-09T07:59:11.739Z,1016.78
2017-11-09T07:59:52.301Z,1016.75
2017-11-09T08:00:32.902Z,1016.78
2017-11-09T08:01:13.465Z,1016.79
2017-11-09T08:01:54.034Z,1016.76
2017-11-09T08:02:34.610Z,1016.75
2017-11-09T08:03:15.186Z,1016.71
2017-11-09T08:03:55.752Z,1016.74
2017-11-09T08:04:36.317Z,1016.74
2017-11-09T08:05:16.890Z,1016.75
2017-11-09T08:05:57.454Z,1016.74
2017-11-09T08:06:38.048Z,1016.74
2017-11-09T08:07:18.632Z,1016.78
2017-11-09T08:07:59.196Z,1016.74
2017-11-09T08:08:39.778Z,1016.77
2017-11-09T08:09:20.333Z,1016.8
2017-11-09T08:10:00.900Z,1016.79
2017-11-09T08:10:41.501Z,1016.79
2017-11-09T08:11:22.123Z,1016.82
2017-11-09T08:12:02.726Z,1016.84
2017-11-09T08:12:43.363Z,1016.83